createdAt,value
2019-02-18T00:00:43.148Z,32.07
2019-02-18T00:03:11.870Z,30.37
2019-02-18T00:05:40.475Z,28.93
2019-02-18T00:08:09.108Z,30.33
2019-02-18T00:10:37.787Z,31.17
2019-02-18T00:13:06.495Z,32.40
2019-02-18T00:15:35.631Z,31.07
2019-02-18T00:18:04.275Z,29.47
2019-02-18T00:20:33.005Z,30.83
2019-02-18T00:23:01.625Z,30.03
2019-02-18T00:25:32.000Z,29.53
2019-02-18T00:28:00.614Z,30.87
2019-02-18T00:30:29.273Z,29.83
2019-02-18T00:32:59.041Z,28.87
2019-02-18T00:35:27.597Z,30.17
2019-02-18T00:37:56.692Z,30.03
2019-02-18T00:40:25.485Z,32.17
2019-02-18T00:42:54.705Z,31.77
2019-02-18T00:45:23.994Z,32.60
2019-02-18T00:47:52.679Z,32.23
2019-02-18T00:50:21.239Z,31.17
2019-02-18T00:52:49.930Z,29.73
2019-02-18T00:55:18.527Z,27.97
2019-02-18T00:57:47.156Z,27.70
2019-02-18T01:00:17.635Z,27.13
2019-02-18T01:02:46.419Z,28.13
2019-02-18T01:05:15.897Z,28.03
2019-02-18T01:07:45.565Z,27.50
2019-02-18T01:10:15.941Z,28.37
2019-02-18T01:12:44.519Z,29.90
2019-02-18T01:15:15.683Z,29.93
2019-02-18T01:17:44.344Z,28.47
2019-02-18T01:20:14.060Z,30.50
2019-02-18T01:22:42.654Z,28.77
2019-02-18T01:25:13.539Z,27.47
2019-02-18T01:27:42.366Z,28.33
2019-02-18T01:30:13.735Z,27.87
2019-02-18T01:32:44.270Z,29.30
2019-02-18T01:35:13.088Z,29.87
2019-02-18T01:37:45.636Z,28.80
2019-02-18T01:40:13.624Z,30.93
2019-02-18T01:42:42.449Z,27.47
2019-02-18T01:45:14.309Z,28.30
2019-02-18T01:47:43.122Z,29.27
2019-02-18T01:50:13.585Z,28.93
2019-02-18T01:52:43.977Z,30.17
2019-02-18T01:55:13.436Z,28.43
2019-02-18T01:57:42.078Z,29.23
2019-02-18T02:00:15.423Z,29.63
2019-02-18T02:02:45.619Z,29.63
2019-02-18T02:05:16.405Z,31.87
2019-02-18T02:07:55.550Z,27.93
2019-02-18T02:10:15.834Z,29.70
2019-02-18T02:12:44.592Z,31.10
2019-02-18T02:15:16.825Z,29.60
2019-02-18T02:17:47.161Z,29.53
2019-02-18T02:20:17.349Z,30.00
2019-02-18T02:22:46.125Z,28.77
2019-02-18T02:25:14.750Z,29.40
2019-02-18T02:27:43.503Z,28.20
2019-02-18T02:30:12.111Z,28.27
2019-02-18T02:32:41.032Z,28.83
2019-02-18T02:35:11.048Z,29.53
2019-02-18T02:37:41.408Z,28.20
2019-02-18T02:40:10.171Z,27.83
2019-02-18T02:42:38.766Z,28.50
2019-02-18T02:45:08.440Z,28.63
2019-02-18T02:47:37.360Z,29.00
2019-02-18T02:50:07.245Z,30.30
2019-02-18T02:52:35.986Z,30.20
2019-02-18T02:55:05.926Z,31.00
2019-02-18T02:57:34.449Z,31.63
2019-02-18T03:00:03.515Z,32.83
2019-02-18T03:02:32.309Z,36.30
2019-02-18T03:05:01.044Z,34.80
2019-02-18T03:07:31.620Z,34.67
2019-02-18T03:10:00.372Z,36.07
2019-02-18T03:12:29.265Z,37.03
2019-02-18T03:14:58.009Z,36.23
2019-02-18T03:17:26.774Z,37.03
2019-02-18T03:19:55.323Z,35.80
2019-02-18T03:22:24.754Z,33.03
2019-02-18T03:25:20.651Z,32.03
2019-02-18T03:27:56.603Z,31.40
2019-02-18T03:30:42.634Z,31.17
2019-02-18T03:33:14.581Z,32.13
2019-02-18T03:35:43.267Z,35.67
2019-02-18T03:38:12.050Z,35.67
2019-02-18T03:40:40.840Z,33.93
2019-02-18T03:43:09.445Z,35.07
2019-02-18T03:45:38.353Z,31.43
2019-02-18T03:48:06.998Z,33.93
2019-02-18T03:50:35.679Z,36.30
2019-02-18T03:53:05.311Z,33.17
2019-02-18T03:55:34.044Z,32.27
2019-02-18T03:58:05.045Z,34.87
2019-02-18T04:00:34.716Z,34.53
2019-02-18T04:03:04.791Z,35.60
2019-02-18T04:05:35.423Z,39.50
2019-02-18T04:08:05.333Z,40.60
2019-02-18T04:10:34.669Z,42.47
2019-02-18T04:13:03.376Z,40.83
2019-02-18T04:15:32.008Z,43.17
2019-02-18T04:18:00.624Z,46.00
2019-02-18T04:20:29.230Z,45.13
2019-02-18T04:22:57.900Z,46.90
2019-02-18T04:25:26.387Z,44.90
2019-02-18T04:27:55.722Z,47.53
2019-02-18T04:30:25.824Z,49.23
2019-02-18T04:32:56.321Z,46.27
2019-02-18T04:35:25.862Z,49.13
2019-02-18T04:37:54.469Z,47.70
2019-02-18T04:40:25.546Z,49.43
2019-02-18T04:42:54.354Z,51.40
2019-02-18T04:45:22.915Z,51.77
2019-02-18T04:47:51.705Z,53.57
2019-02-18T04:50:20.909Z,51.70
2019-02-18T04:52:49.490Z,51.53
2019-02-18T04:55:18.234Z,49.43
2019-02-18T04:57:47.558Z,51.87
2019-02-18T05:00:16.292Z,52.33
2019-02-18T05:02:44.837Z,54.17
2019-02-18T05:05:13.567Z,51.43
2019-02-18T05:07:44.767Z,50.80
2019-02-18T05:10:13.468Z,54.17
2019-02-18T05:12:42.186Z,54.33
2019-02-18T05:15:10.839Z,56.30
2019-02-18T05:17:39.407Z,53.87
2019-02-18T05:20:08.933Z,55.53
2019-02-18T05:22:37.748Z,56.17
2019-02-18T05:25:08.229Z,55.60
2019-02-18T05:27:37.084Z,57.60
2019-02-18T05:30:09.161Z,59.60
2019-02-18T05:32:38.170Z,57.87
2019-02-18T05:35:07.987Z,58.17
2019-02-18T05:37:36.879Z,56.47
2019-02-18T05:40:08.236Z,57.40
2019-02-18T05:42:37.842Z,55.47
2019-02-18T05:45:08.476Z,50.53
2019-02-18T05:47:37.133Z,53.47
2019-02-18T05:50:07.992Z,55.27
2019-02-18T05:52:37.224Z,55.83
2019-02-18T05:55:07.287Z,53.60
2019-02-18T05:57:37.015Z,54.00
2019-02-18T06:00:11.803Z,55.40
2019-02-18T06:02:40.856Z,52.60
2019-02-18T06:05:10.068Z,56.27
2019-02-18T06:07:38.841Z,55.47
2019-02-18T06:10:09.016Z,55.93
2019-02-18T06:12:37.675Z,57.33
2019-02-18T06:15:09.238Z,55.27
2019-02-18T06:17:38.175Z,57.53
2019-02-18T06:20:12.524Z,55.83
2019-02-18T06:22:41.340Z,55.67
2019-02-18T06:25:11.905Z,53.50
2019-02-18T06:27:40.572Z,52.87
2019-02-18T06:30:10.506Z,51.30
2019-02-18T06:32:40.791Z,55.47
2019-02-18T06:35:09.602Z,56.40
2019-02-18T06:37:38.761Z,55.60
2019-02-18T06:40:10.469Z,56.83
2019-02-18T06:42:39.917Z,55.60
2019-02-18T06:45:11.995Z,58.17
2019-02-18T06:47:41.516Z,54.03
2019-02-18T06:50:10.581Z,55.60
2019-02-18T06:52:39.716Z,56.30
2019-02-18T06:55:10.450Z,54.43
2019-02-18T06:57:44.064Z,55.33
2019-02-18T07:00:14.919Z,57.13
2019-02-18T07:02:45.627Z,56.33
2019-02-18T07:05:16.146Z,55.90
2019-02-18T07:07:47.187Z,57.00
2019-02-18T07:10:18.234Z,55.30
2019-02-18T07:12:48.149Z,53.97
2019-02-18T07:15:17.118Z,52.83
2019-02-18T07:17:46.509Z,54.03
2019-02-18T07:20:17.028Z,52.90
2019-02-18T07:22:46.040Z,56.17
2019-02-18T07:25:16.743Z,55.90
2019-02-18T07:27:46.404Z,51.37
2019-02-18T07:30:16.034Z,51.53
2019-02-18T07:32:45.302Z,52.80
2019-02-18T07:35:17.444Z,55.10
2019-02-18T07:37:48.324Z,53.87
2019-02-18T07:40:19.589Z,57.53
2019-02-18T07:42:48.924Z,57.90
2019-02-18T07:45:18.556Z,55.30
2019-02-18T07:47:50.816Z,54.53
2019-02-18T07:50:21.065Z,58.57
2019-02-18T07:52:50.639Z,52.53
2019-02-18T07:55:20.729Z,54.87
2019-02-18T07:57:49.531Z,53.83
2019-02-18T08:00:19.100Z,56.13
2019-02-18T08:02:48.311Z,54.40
2019-02-18T08:05:17.922Z,53.87
2019-02-18T08:07:46.812Z,54.97
2019-02-18T08:10:16.111Z,54.37
2019-02-18T08:12:45.439Z,53.63
2019-02-18T08:15:15.028Z,51.47
2019-02-18T08:17:44.034Z,55.77
2019-02-18T08:20:13.460Z,51.43
2019-02-18T08:22:42.601Z,53.37
2019-02-18T08:25:13.545Z,55.40
2019-02-18T08:27:42.662Z,51.43
2019-02-18T08:30:13.956Z,52.77
2019-02-18T08:32:43.125Z,53.63
2019-02-18T08:35:12.265Z,52.90
2019-02-18T08:37:41.317Z,54.03
2019-02-18T08:40:10.567Z,56.03
2019-02-18T08:42:39.710Z,53.13
2019-02-18T08:45:12.142Z,51.03
2019-02-18T08:47:40.818Z,52.87
2019-02-18T08:50:12.057Z,55.50
2019-02-18T08:52:41.226Z,52.93
2019-02-18T08:55:13.219Z,53.90
2019-02-18T08:57:42.568Z,53.13
2019-02-18T09:00:14.267Z,50.70
2019-02-18T09:02:43.626Z,55.10
2019-02-18T09:05:13.120Z,50.77
2019-02-18T09:07:44.477Z,54.57
2019-02-18T09:10:14.787Z,54.47
2019-02-18T09:12:46.005Z,57.50
2019-02-18T09:15:15.961Z,57.47
2019-02-18T09:17:46.237Z,55.47
2019-02-18T09:20:15.354Z,52.53
2019-02-18T09:22:48.867Z,53.60
2019-02-18T09:25:19.710Z,54.27
2019-02-18T09:27:50.549Z,53.23
2019-02-18T09:30:22.210Z,53.70
2019-02-18T09:32:51.365Z,51.23
2019-02-18T09:35:23.476Z,50.87
2019-02-18T09:37:52.752Z,53.53
2019-02-18T09:40:23.374Z,52.13
2019-02-18T09:42:52.547Z,50.93
2019-02-18T09:45:21.723Z,52.40
2019-02-18T09:47:54.417Z,54.23
2019-02-18T09:50:23.929Z,50.80
2019-02-18T09:52:54.197Z,50.47
2019-02-18T09:55:23.361Z,52.53
2019-02-18T09:57:52.350Z,49.00
2019-02-18T10:00:21.763Z,50.83
2019-02-18T10:02:51.052Z,50.57
2019-02-18T10:05:20.269Z,46.73
2019-02-18T10:07:49.419Z,50.13
2019-02-18T10:10:20.016Z,53.93
2019-02-18T10:12:49.257Z,52.23
2019-02-18T10:15:18.362Z,52.93
2019-02-18T10:17:47.595Z,48.93
2019-02-18T10:20:16.780Z,48.10
2019-02-18T10:22:46.058Z,49.60
2019-02-18T10:25:15.280Z,51.03
2019-02-18T10:27:44.444Z,46.47
2019-02-18T10:30:13.659Z,47.57
2019-02-18T10:32:44.540Z,51.13
2019-02-18T10:35:15.158Z,52.67
2019-02-18T10:37:44.320Z,56.17
2019-02-18T10:40:15.263Z,53.43
2019-02-18T10:42:44.414Z,52.03
2019-02-18T10:45:13.958Z,48.63
2019-02-18T10:47:43.261Z,50.07
2019-02-18T10:50:12.772Z,51.20
2019-02-18T10:52:41.860Z,51.40
2019-02-18T10:55:11.954Z,49.03
2019-02-18T10:57:41.340Z,44.30
2019-02-18T11:00:15.401Z,46.03
2019-02-18T11:02:44.655Z,46.10
2019-02-18T11:05:14.129Z,43.53
2019-02-18T11:07:43.739Z,43.80
2019-02-18T11:10:16.341Z,44.33
2019-02-18T11:12:47.513Z,44.40
2019-02-18T11:15:16.175Z,40.13
2019-02-18T11:17:45.914Z,43.10
2019-02-18T11:20:15.194Z,40.07
2019-02-18T11:22:45.363Z,43.70
2019-02-18T11:25:15.682Z,41.23
2019-02-18T11:27:44.577Z,43.87
2019-02-18T11:30:19.079Z,42.97
2019-02-18T11:32:48.189Z,38.83
2019-02-18T11:35:18.934Z,39.93
2019-02-18T11:37:48.377Z,40.27
2019-02-18T11:40:20.414Z,41.67
2019-02-18T11:42:49.615Z,40.17
2019-02-18T11:45:18.721Z,37.07
2019-02-18T11:47:48.171Z,39.40
2019-02-18T11:50:17.185Z,39.47
2019-02-18T11:52:46.524Z,37.77
2019-02-18T11:55:15.711Z,36.77
2019-02-18T11:57:45.461Z,37.70
2019-02-18T12:00:15.861Z,36.37
2019-02-18T12:02:46.811Z,37.27
2019-02-18T12:05:16.099Z,38.57
2019-02-18T12:07:45.324Z,37.57
2019-02-18T12:10:14.997Z,34.80
2019-02-18T12:12:45.480Z,37.53
2019-02-18T12:15:15.731Z,40.60
2019-02-18T12:17:45.206Z,34.77
2019-02-18T12:20:17.082Z,36.53
2019-02-18T12:22:46.338Z,35.83
2019-02-18T12:25:16.006Z,33.70
2019-02-18T12:27:45.301Z,32.53
2019-02-18T12:30:16.720Z,34.53
2019-02-18T12:32:47.564Z,30.03
2019-02-18T12:35:19.563Z,30.27
2019-02-18T12:37:55.375Z,29.37
2019-02-18T12:40:21.090Z,26.53
2019-02-18T12:42:50.183Z,24.63
2019-02-18T12:45:19.367Z,25.80
2019-02-18T12:47:48.519Z,26.80
2019-02-18T12:50:17.677Z,28.77
2019-02-18T12:52:47.171Z,26.90
2019-02-18T12:55:17.346Z,25.67
2019-02-18T12:57:48.448Z,26.20
2019-02-18T13:00:21.540Z,26.67
2019-02-18T13:02:53.327Z,27.37
2019-02-18T13:05:22.817Z,30.30
2019-02-18T13:07:54.675Z,26.57
2019-02-18T13:10:34.729Z,27.17
2019-02-18T13:12:57.243Z,24.40
2019-02-18T13:15:26.210Z,25.80
2019-02-18T13:17:55.035Z,28.83
2019-02-18T13:20:24.440Z,25.57
2019-02-18T13:22:53.521Z,24.67
2019-02-18T13:25:23.086Z,22.53
2019-02-18T13:27:55.011Z,24.23
2019-02-18T13:30:24.413Z,23.23
2019-02-18T13:32:53.712Z,23.27
2019-02-18T13:35:24.322Z,22.43
2019-02-18T13:37:53.635Z,20.97
2019-02-18T13:40:22.817Z,21.53
2019-02-18T13:42:56.349Z,19.97
2019-02-18T13:45:26.022Z,20.80
2019-02-18T13:47:55.296Z,20.87
2019-02-18T13:50:25.032Z,22.10
2019-02-18T13:52:54.365Z,22.17
2019-02-18T13:55:24.075Z,21.43
2019-02-18T13:57:54.729Z,23.23
2019-02-18T14:00:24.066Z,21.63
2019-02-18T14:02:54.635Z,23.27
2019-02-18T14:05:24.143Z,23.10
2019-02-18T14:07:53.498Z,21.00
2019-02-18T14:10:23.085Z,22.80
2019-02-18T14:12:52.517Z,20.83
2019-02-18T14:15:22.116Z,22.87
2019-02-18T14:17:51.237Z,24.37
2019-02-18T14:20:22.067Z,22.43
2019-02-18T14:22:51.290Z,24.90
2019-02-18T14:25:20.953Z,24.43
2019-02-18T14:27:50.674Z,22.83
2019-02-18T14:30:20.254Z,21.37
2019-02-18T14:32:51.453Z,25.97
2019-02-18T14:35:20.923Z,25.67
2019-02-18T14:37:50.538Z,25.50
2019-02-18T14:40:22.916Z,21.63
2019-02-18T14:42:51.973Z,20.87
2019-02-18T14:45:22.611Z,24.77
2019-02-18T14:47:53.244Z,24.50
2019-02-18T14:50:22.551Z,24.67
2019-02-18T14:52:51.915Z,25.50
2019-02-18T14:55:21.050Z,22.57
2019-02-18T14:57:51.135Z,24.37
2019-02-18T15:00:23.497Z,27.93
2019-02-18T15:02:54.400Z,26.73
2019-02-18T15:05:24.061Z,26.43
2019-02-18T15:07:54.919Z,25.20
2019-02-18T15:10:24.236Z,31.70
2019-02-18T15:12:53.588Z,30.93
2019-02-18T15:15:22.913Z,27.67
2019-02-18T15:17:53.543Z,26.73
2019-02-18T15:20:23.941Z,26.27
2019-02-18T15:22:53.266Z,26.47
2019-02-18T15:25:22.810Z,29.33
2019-02-18T15:27:53.464Z,29.67
2019-02-18T15:30:24.984Z,29.83
2019-02-18T15:32:55.291Z,30.07
2019-02-18T15:35:26.387Z,30.00
2019-02-18T15:37:56.571Z,30.60
2019-02-18T15:40:25.797Z,30.97
2019-02-18T15:42:54.806Z,35.10
2019-02-18T15:45:24.285Z,39.30
2019-02-18T15:48:01.367Z,34.63
2019-02-18T15:50:24.375Z,34.23
2019-02-18T15:52:54.249Z,33.43
2019-02-18T15:55:23.579Z,38.97
2019-02-18T15:57:52.989Z,42.97
2019-02-18T16:00:25.367Z,49.60
2019-02-18T16:02:54.769Z,44.00
2019-02-18T16:05:24.040Z,35.93
2019-02-18T16:07:53.449Z,36.70
2019-02-18T16:10:22.763Z,31.93
2019-02-18T16:12:52.147Z,29.87
2019-02-18T16:15:22.111Z,27.83
2019-02-18T16:17:51.120Z,29.93
2019-02-18T16:20:20.574Z,28.07
2019-02-18T16:22:49.782Z,27.87
2019-02-18T16:25:21.814Z,28.87
2019-02-18T16:27:51.238Z,29.60
2019-02-18T16:30:20.397Z,30.23
2019-02-18T16:32:49.669Z,28.70
2019-02-18T16:35:18.940Z,27.50
2019-02-18T16:37:48.485Z,32.37
2019-02-18T16:40:18.740Z,33.53
2019-02-18T16:42:47.950Z,30.93
2019-02-18T16:45:17.246Z,35.53
2019-02-18T16:47:47.061Z,37.73
2019-02-18T16:50:16.217Z,37.17
2019-02-18T16:52:45.757Z,36.63
2019-02-18T16:55:16.022Z,35.40
2019-02-18T16:57:45.350Z,37.57
2019-02-18T17:00:29.051Z,40.20
2019-02-18T17:02:59.456Z,40.27
2019-02-18T17:05:29.053Z,41.00
2019-02-18T17:07:58.130Z,39.70
2019-02-18T17:10:29.467Z,36.57
2019-02-18T17:12:58.119Z,37.70
2019-02-18T17:15:32.116Z,38.67
2019-02-18T17:18:01.072Z,37.33
2019-02-18T17:20:30.216Z,39.93
2019-02-18T17:23:00.079Z,39.60
2019-02-18T17:29:10.575Z,38.50
2019-02-18T17:31:39.535Z,38.57
2019-02-18T17:34:08.496Z,37.97
2019-02-18T17:36:37.417Z,36.87
2019-02-18T17:39:06.684Z,36.80
2019-02-18T17:41:35.586Z,38.13
2019-02-18T17:44:04.678Z,34.37
2019-02-18T17:46:35.223Z,35.77
2019-02-18T17:49:03.978Z,34.67
2019-02-18T17:51:32.671Z,36.10
2019-02-18T17:54:02.010Z,36.30
2019-02-18T17:56:31.799Z,37.80
2019-02-18T17:59:01.050Z,37.50
2019-02-18T18:01:31.742Z,39.77
2019-02-18T18:04:01.209Z,36.97
2019-02-18T18:06:29.987Z,40.13
2019-02-18T18:08:58.730Z,38.80
2019-02-18T18:11:29.995Z,38.23
2019-02-18T18:13:59.128Z,39.20
2019-02-18T18:16:28.268Z,40.17
2019-02-18T18:18:57.287Z,40.33
2019-02-18T18:21:27.227Z,41.53
2019-02-18T18:23:56.678Z,39.57
2019-02-18T18:26:28.934Z,37.67
2019-02-18T18:29:01.537Z,39.60
2019-02-18T18:31:35.347Z,41.07
2019-02-18T18:34:04.279Z,38.97
2019-02-18T18:36:33.644Z,39.20
2019-02-18T18:39:03.326Z,42.17
2019-02-18T18:41:32.196Z,42.07
2019-02-18T18:44:01.203Z,40.93
2019-02-18T18:46:30.663Z,39.20
2019-02-18T18:48:59.640Z,39.83
2019-02-18T18:51:28.839Z,38.17
2019-02-18T18:53:57.857Z,38.60
2019-02-18T18:56:26.589Z,35.60
2019-02-18T18:58:55.209Z,38.00
2019-02-18T19:01:29.277Z,37.83
2019-02-18T19:03:58.167Z,38.63
2019-02-18T19:06:27.567Z,39.43
2019-02-18T19:08:56.661Z,39.30
2019-02-18T19:11:31.569Z,38.97
2019-02-18T19:14:00.634Z,37.97
2019-02-18T19:16:29.515Z,39.97
2019-02-18T19:18:58.403Z,38.43
2019-02-18T19:21:27.324Z,40.33
2019-02-18T19:23:56.195Z,46.07
2019-02-18T19:26:25.183Z,44.27
2019-02-18T19:28:54.169Z,46.57
2019-02-18T19:31:23.108Z,45.07
2019-02-18T19:33:52.057Z,42.03
2019-02-18T19:36:20.775Z,41.53
2019-02-18T19:38:49.437Z,41.13
2019-02-18T19:41:19.365Z,43.33
2019-02-18T19:43:50.311Z,41.60
2019-02-18T19:46:18.686Z,40.33
2019-02-18T19:48:49.080Z,42.10
2019-02-18T19:51:17.880Z,46.47
2019-02-18T19:53:46.640Z,43.33
2019-02-18T19:56:16.481Z,46.30
2019-02-18T19:58:45.368Z,42.87
2019-02-18T20:01:14.163Z,43.93
2019-02-18T20:03:43.363Z,44.83
2019-02-18T20:06:12.448Z,41.70
2019-02-18T20:08:41.280Z,39.67
2019-02-18T20:11:10.049Z,41.20
2019-02-18T20:13:38.920Z,41.13
2019-02-18T20:16:07.720Z,41.90
2019-02-18T20:18:39.041Z,42.00
2019-02-18T20:21:10.086Z,43.17
2019-02-18T20:23:38.874Z,43.90
2019-02-18T20:26:07.640Z,42.83
2019-02-18T20:28:36.882Z,44.77
2019-02-18T20:31:07.479Z,43.83
2019-02-18T20:33:37.480Z,44.07
2019-02-18T20:36:06.480Z,44.00
2019-02-18T20:38:35.402Z,43.13
2019-02-18T20:41:06.120Z,44.23
2019-02-18T20:43:34.994Z,42.90
2019-02-18T20:46:04.608Z,45.87
2019-02-18T20:48:33.600Z,46.13
2019-02-18T20:51:02.400Z,45.73
2019-02-18T20:53:32.001Z,46.23
2019-02-18T20:56:03.679Z,54.90
2019-02-18T20:58:32.572Z,60.90
2019-02-18T21:01:04.111Z,68.90
2019-02-18T21:03:32.866Z,59.37
2019-02-18T21:06:04.062Z,57.10
2019-02-18T21:08:33.207Z,61.40
2019-02-18T21:11:02.327Z,62.83
2019-02-18T21:13:33.131Z,62.40
2019-02-18T21:16:02.064Z,58.10
2019-02-18T21:18:31.131Z,52.73
2019-02-18T21:21:04.611Z,52.90
2019-02-18T21:23:33.749Z,52.53
2019-02-18T21:26:02.655Z,55.73
2019-02-18T21:28:31.813Z,60.87
2019-02-18T21:31:01.372Z,61.03
2019-02-18T21:33:30.432Z,59.40
2019-02-18T21:35:59.523Z,61.23
2019-02-18T21:38:28.459Z,63.80
2019-02-18T21:40:57.264Z,65.53
2019-02-18T21:43:26.294Z,74.47
2019-02-18T21:45:55.103Z,73.27
2019-02-18T21:48:24.013Z,79.53
2019-02-18T21:50:53.125Z,73.70
2019-02-18T21:53:22.289Z,65.17
2019-02-18T21:55:51.219Z,66.73
2019-02-18T21:58:20.323Z,61.50
2019-02-18T22:00:50.780Z,61.27
2019-02-18T22:03:30.196Z,63.87
2019-02-18T22:05:59.178Z,60.97
2019-02-18T22:08:28.257Z,56.93
2019-02-18T22:10:57.143Z,63.50
2019-02-18T22:13:26.045Z,63.20
2019-02-18T22:15:54.731Z,58.60
2019-02-18T22:18:23.345Z,58.13
2019-02-18T22:20:52.153Z,57.10
2019-02-18T22:23:21.214Z,54.80
2019-02-18T22:25:51.431Z,53.00
2019-02-18T22:28:20.816Z,54.17
2019-02-18T22:30:50.017Z,55.27
2019-02-18T22:33:20.372Z,57.20
2019-02-18T22:35:50.562Z,59.13
2019-02-18T22:38:19.354Z,53.87
2019-02-18T22:40:48.618Z,57.73
2019-02-18T22:43:17.325Z,53.77
2019-02-18T22:45:47.284Z,63.50
2019-02-18T22:48:16.021Z,61.93
2019-02-18T22:50:47.053Z,64.43
2019-02-18T22:53:16.772Z,61.13
2019-02-18T22:55:50.171Z,62.00
2019-02-18T22:58:31.048Z,55.87
2019-02-18T23:01:00.851Z,55.63
2019-02-18T23:03:29.433Z,58.97
2019-02-18T23:05:58.120Z,55.23
2019-02-18T23:08:26.806Z,54.60
2019-02-18T23:10:55.481Z,52.97
2019-02-18T23:13:24.061Z,56.00
2019-02-18T23:15:52.759Z,53.00
2019-02-18T23:18:22.041Z,55.67
2019-02-18T23:20:52.070Z,55.33
2019-02-18T23:23:20.580Z,55.93
2019-02-18T23:25:49.124Z,55.00
2019-02-18T23:28:18.219Z,54.90
2019-02-18T23:30:46.896Z,54.57
2019-02-18T23:33:15.375Z,66.53
2019-02-18T23:35:44.171Z,59.87
2019-02-18T23:38:12.668Z,58.03
2019-02-18T23:40:42.185Z,57.43
2019-02-18T23:43:10.842Z,57.97
2019-02-18T23:45:39.420Z,60.07
2019-02-18T23:48:08.262Z,59.47
2019-02-18T23:50:37.924Z,58.33
2019-02-18T23:53:06.605Z,59.17
2019-02-18T23:55:35.191Z,58.67
2019-02-18T23:58:03.985Z,59.07
